createdAt,value
2023-10-22T00:00:01.220Z,100687.50
2023-10-22T00:02:39.435Z,100697.97
2023-10-22T00:05:07.512Z,100714.22
2023-10-22T00:07:35.231Z,100729.25
2023-10-22T00:10:02.539Z,100741.94
2023-10-22T00:12:29.688Z,100744.13
2023-10-22T00:14:56.795Z,100748.00
2023-10-22T00:17:23.880Z,100748.00
2023-10-22T00:19:51.102Z,100747.50
2023-10-22T00:22:18.592Z,100743.09
2023-10-22T00:24:45.655Z,100746.50
2023-10-22T00:27:12.875Z,100751.75
2023-10-22T00:29:40.192Z,100746.00
2023-10-22T00:32:07.671Z,100743.28
2023-10-22T00:34:36.146Z,100734.50
2023-10-22T00:37:04.190Z,100745.31
2023-10-22T00:39:31.312Z,100749.38
2023-10-22T00:41:58.568Z,100743.47
2023-10-22T00:44:25.685Z,100741.25
2023-10-22T00:46:53.602Z,100735.50
2023-10-22T00:49:21.011Z,100733.13
2023-10-22T00:51:48.396Z,100726.34
2023-10-22T00:54:16.985Z,100728.38
2023-10-22T00:56:44.372Z,100727.66
2023-10-22T00:59:13.232Z,100735.44
2023-10-22T01:01:40.299Z,100739.19
2023-10-22T01:04:08.483Z,100744.59
2023-10-22T01:06:37.206Z,100746.59
2023-10-22T01:09:05.468Z,100750.28
2023-10-22T01:11:32.535Z,100741.53
2023-10-22T01:13:59.637Z,100747.25
2023-10-22T01:16:27.746Z,100752.84
2023-10-22T01:18:54.770Z,100749.59
2023-10-22T01:21:26.101Z,100750.78
2023-10-22T01:23:53.267Z,100756.16
2023-10-22T01:26:20.594Z,100750.56
2023-10-22T01:28:47.690Z,100752.78
2023-10-22T01:31:18.118Z,100749.22
2023-10-22T01:33:45.455Z,100750.22
2023-10-22T01:36:12.916Z,100757.47
2023-10-22T01:38:40.165Z,100755.97
2023-10-22T01:41:08.745Z,100756.13
2023-10-22T01:43:36.205Z,100755.28
2023-10-22T01:46:03.491Z,100752.41
2023-10-22T01:48:30.668Z,100752.56
2023-10-22T01:50:57.855Z,100755.59
2023-10-22T01:53:25.160Z,100750.38
2023-10-22T01:55:52.371Z,100760.16
2023-10-22T01:58:19.463Z,100748.84
2023-10-22T02:00:46.654Z,100747.16
2023-10-22T02:03:13.789Z,100746.44
2023-10-22T02:05:40.959Z,100744.09
2023-10-22T02:08:08.114Z,100746.09
2023-10-22T02:10:36.257Z,100744.72
2023-10-22T02:13:03.418Z,100752.16
2023-10-22T02:15:30.955Z,100756.19
2023-10-22T02:17:58.044Z,100741.31
2023-10-22T02:20:25.260Z,100746.34
2023-10-22T02:22:52.500Z,100749.38
2023-10-22T02:25:19.606Z,100748.72
2023-10-22T02:27:46.671Z,100740.75
2023-10-22T02:30:14.337Z,100751.03
2023-10-22T02:32:41.564Z,100744.63
2023-10-22T02:35:09.216Z,100740.41
2023-10-22T02:37:36.261Z,100752.34
2023-10-22T02:40:03.933Z,100756.75
2023-10-22T02:42:31.401Z,100755.91
2023-10-22T02:44:58.418Z,100756.53
2023-10-22T02:47:25.644Z,100763.06
2023-10-22T02:49:55.761Z,100745.19
2023-10-22T02:52:22.899Z,100751.91
2023-10-22T02:54:50.360Z,100757.50
2023-10-22T02:57:17.807Z,100761.00
2023-10-22T02:59:44.981Z,100752.53
2023-10-22T03:02:12.136Z,100757.13
2023-10-22T03:04:39.530Z,100751.88
2023-10-22T03:07:06.866Z,100739.38
2023-10-22T03:09:33.861Z,100751.88
2023-10-22T03:12:02.196Z,100742.22
2023-10-22T03:14:29.283Z,100752.50
2023-10-22T03:16:58.353Z,100754.53
2023-10-22T03:19:25.820Z,100752.81
2023-10-22T03:21:53.141Z,100757.16
2023-10-22T03:24:20.258Z,100751.22
2023-10-22T03:26:47.953Z,100761.16
2023-10-22T03:29:15.115Z,100759.66
2023-10-22T03:31:42.385Z,100757.94
2023-10-22T03:34:09.425Z,100763.34
2023-10-22T03:36:36.788Z,100763.47
2023-10-22T03:39:04.082Z,100767.19
2023-10-22T03:41:31.317Z,100765.81
2023-10-22T03:44:01.923Z,100758.72
2023-10-22T03:46:29.076Z,100759.03
2023-10-22T03:48:58.482Z,100756.66
2023-10-22T03:51:26.002Z,100758.19
2023-10-22T03:53:57.824Z,100768.28
2023-10-22T03:56:24.910Z,100773.84
2023-10-22T03:58:51.972Z,100779.56
2023-10-22T04:01:19.184Z,100775.63
2023-10-22T04:03:46.382Z,100785.84
2023-10-22T04:06:13.542Z,100788.88
2023-10-22T04:08:40.662Z,100790.72
2023-10-22T04:11:08.716Z,100784.94
2023-10-22T04:13:35.880Z,100780.31
2023-10-22T04:16:02.976Z,100788.03
2023-10-22T04:18:30.172Z,100782.88
2023-10-22T04:20:57.510Z,100790.28
2023-10-22T04:23:25.605Z,100786.91
2023-10-22T04:25:52.681Z,100790.91
2023-10-22T04:28:20.193Z,100787.53
2023-10-22T04:30:50.036Z,100788.34
2023-10-22T04:33:17.341Z,100782.75
2023-10-22T04:35:44.464Z,100792.34
2023-10-22T04:38:11.802Z,100782.75
2023-10-22T04:40:38.818Z,100783.03
2023-10-22T04:43:05.843Z,100769.56
2023-10-22T04:45:32.978Z,100766.50
2023-10-22T04:48:00.151Z,100771.50
2023-10-22T04:50:27.592Z,100761.72
2023-10-22T04:52:54.580Z,100780.84
2023-10-22T04:55:21.994Z,100777.16
2023-10-22T04:57:49.117Z,100783.53
2023-10-22T05:00:16.427Z,100788.25
2023-10-22T05:02:43.733Z,100798.78
2023-10-22T05:05:10.988Z,100794.81
2023-10-22T05:07:38.093Z,100792.75
2023-10-22T05:10:06.124Z,100793.22
2023-10-22T05:12:33.459Z,100792.63
2023-10-22T05:15:00.591Z,100800.88
2023-10-22T05:17:27.800Z,100807.38
2023-10-22T05:19:54.871Z,100809.09
2023-10-22T05:22:22.147Z,100809.41
2023-10-22T05:24:50.137Z,100814.94
2023-10-22T05:27:18.941Z,100804.28
2023-10-22T05:29:49.931Z,100810.00
2023-10-22T05:32:17.176Z,100801.19
2023-10-22T05:34:44.734Z,100809.44
2023-10-22T05:37:11.999Z,100813.97
2023-10-22T05:39:39.099Z,100815.28
2023-10-22T05:42:07.394Z,100809.88
2023-10-22T05:44:38.519Z,100816.25
2023-10-22T05:47:06.188Z,100819.94
2023-10-22T05:49:33.362Z,100825.31
2023-10-22T05:52:00.408Z,100812.72
2023-10-22T05:54:27.556Z,100812.84
2023-10-22T05:56:54.588Z,100814.69
2023-10-22T05:59:21.751Z,100819.41
2023-10-22T06:01:49.152Z,100825.63
2023-10-22T06:04:16.300Z,100823.06
2023-10-22T06:06:43.414Z,100825.03
2023-10-22T06:09:13.602Z,100822.53
2023-10-22T06:11:41.151Z,100826.47
2023-10-22T06:14:10.280Z,100821.09
2023-10-22T06:16:38.978Z,100820.38
2023-10-22T06:19:06.096Z,100826.88
2023-10-22T06:21:33.125Z,100833.13
2023-10-22T06:24:00.718Z,100828.75
2023-10-22T06:26:27.821Z,100839.50
2023-10-22T06:28:54.825Z,100825.66
2023-10-22T06:31:22.067Z,100827.63
2023-10-22T06:33:50.168Z,100844.63
2023-10-22T06:36:22.383Z,100843.47
2023-10-22T06:38:50.975Z,100850.28
2023-10-22T06:41:19.605Z,100853.66
2023-10-22T06:43:46.957Z,100853.38
2023-10-22T06:46:14.860Z,100855.06
2023-10-22T06:48:44.019Z,100855.78
2023-10-22T06:51:19.608Z,100861.88
2023-10-22T06:53:48.734Z,100861.16
2023-10-22T06:56:16.965Z,100869.53
2023-10-22T06:58:46.399Z,100871.50
2023-10-22T07:01:15.712Z,100872.06
2023-10-22T07:03:47.657Z,100871.81
2023-10-22T07:06:15.531Z,100866.97
2023-10-22T07:08:44.790Z,100870.34
2023-10-22T07:11:12.552Z,100872.91
2023-10-22T07:13:39.642Z,100871.94
2023-10-22T07:16:08.263Z,100875.31
2023-10-22T07:18:35.490Z,100877.16
2023-10-22T07:21:03.026Z,100879.69
2023-10-22T07:23:33.348Z,100877.72
2023-10-22T07:26:00.914Z,100885.66
2023-10-22T07:28:28.335Z,100886.22
2023-10-22T07:30:55.392Z,100888.59
2023-10-22T07:33:22.695Z,100892.69
2023-10-22T07:35:57.606Z,100889.72
2023-10-22T07:38:34.093Z,100894.09
2023-10-22T07:41:02.174Z,100902.75
2023-10-22T07:43:30.533Z,100903.16
2023-10-22T07:46:05.979Z,100901.16
2023-10-22T07:48:36.326Z,100908.94
2023-10-22T07:51:17.245Z,100902.53
2023-10-22T07:53:46.015Z,100907.09
2023-10-22T07:56:14.022Z,100904.78
2023-10-22T07:58:41.421Z,100907.94
2023-10-22T08:01:09.445Z,100905.94
2023-10-22T08:03:37.344Z,100901.28
2023-10-22T08:06:05.918Z,100903.66
2023-10-22T08:08:33.214Z,100901.97
2023-10-22T08:11:02.350Z,100901.50
2023-10-22T08:13:29.428Z,100905.78
2023-10-22T08:15:57.848Z,100911.69
2023-10-22T08:18:25.697Z,100918.94
2023-10-22T08:20:53.196Z,100917.78
2023-10-22T08:23:20.373Z,100920.34
2023-10-22T08:25:52.787Z,100917.50
2023-10-22T08:28:21.213Z,100921.59
2023-10-22T08:30:49.060Z,100917.16
2023-10-22T08:33:16.237Z,100941.22
2023-10-22T08:35:43.736Z,100938.03
2023-10-22T08:38:10.851Z,100941.94
2023-10-22T08:40:39.695Z,100930.31
2023-10-22T08:43:08.103Z,100929.50
2023-10-22T08:45:35.245Z,100933.97
2023-10-22T08:48:07.405Z,100927.91
2023-10-22T08:50:35.036Z,100924.78
2023-10-22T08:53:02.175Z,100919.06
2023-10-22T08:55:30.596Z,100930.91
2023-10-22T08:58:00.804Z,100929.19
2023-10-22T09:00:30.796Z,100924.22
2023-10-22T09:02:59.572Z,100922.94
2023-10-22T09:05:26.903Z,100922.53
2023-10-22T09:07:56.089Z,100920.41
2023-10-22T09:10:29.815Z,100931.94
2023-10-22T09:13:17.813Z,100912.91
2023-10-22T09:15:46.743Z,100922.09
2023-10-22T09:18:15.214Z,100914.53
2023-10-22T09:20:43.615Z,100919.81
2023-10-22T09:23:18.795Z,100921.38
2023-10-22T09:26:13.220Z,100916.00
2023-10-22T09:28:40.227Z,100921.75
2023-10-22T09:31:08.238Z,100914.34
2023-10-22T09:33:37.551Z,100920.41
2023-10-22T09:36:15.874Z,100918.41
2023-10-22T09:38:47.638Z,100918.72
2023-10-22T09:41:20.496Z,100924.97
2023-10-22T09:43:47.626Z,100913.31
2023-10-22T09:46:15.427Z,100917.06
2023-10-22T09:48:44.673Z,100918.06
2023-10-22T09:51:14.687Z,100918.34
2023-10-22T09:53:50.549Z,100927.31
2023-10-22T09:56:20.959Z,100921.41
2023-10-22T09:58:50.069Z,100924.81
2023-10-22T10:01:17.329Z,100922.75
2023-10-22T10:03:45.213Z,100916.34
2023-10-22T10:06:12.889Z,100917.88
2023-10-22T10:08:40.965Z,100916.72
2023-10-22T10:11:12.761Z,100923.47
2023-10-22T10:13:41.413Z,100932.59
2023-10-22T10:16:08.864Z,100930.59
2023-10-22T10:19:04.500Z,100922.47
2023-10-22T10:21:39.486Z,100926.94
2023-10-22T10:24:15.629Z,100928.66
2023-10-22T10:26:43.017Z,100928.88
2023-10-22T10:29:16.399Z,100926.31
2023-10-22T10:31:49.390Z,100927.97
2023-10-22T10:34:26.129Z,100924.44
2023-10-22T10:36:56.709Z,100929.28
2023-10-22T10:39:44.658Z,100934.31
2023-10-22T10:42:13.280Z,100934.97
2023-10-22T10:44:59.129Z,100934.41
2023-10-22T10:47:26.633Z,100928.25
2023-10-22T10:50:04.836Z,100912.16
2023-10-22T10:52:44.329Z,100908.44
2023-10-22T10:55:16.311Z,100910.59
2023-10-22T10:57:48.682Z,100905.72
2023-10-22T11:00:22.861Z,100910.13
2023-10-22T11:02:52.680Z,100903.66
2023-10-22T11:05:39.370Z,100899.06
2023-10-22T11:08:19.885Z,100890.47
2023-10-22T11:10:47.540Z,100879.75
2023-10-22T11:13:15.101Z,100882.06
2023-10-22T11:15:42.718Z,100870.59
2023-10-22T11:18:13.263Z,100870.34
2023-10-22T11:20:44.951Z,100866.69
2023-10-22T11:23:19.810Z,100870.59
2023-10-22T11:25:47.742Z,100863.94
2023-10-22T11:28:15.924Z,100871.16
2023-10-22T11:30:43.884Z,100866.88
2023-10-22T11:33:27.894Z,100870.06
2023-10-22T11:35:58.575Z,100857.50
2023-10-22T11:38:26.132Z,100850.00
2023-10-22T11:40:57.143Z,100835.75
2023-10-22T11:43:28.068Z,100830.59
2023-10-22T11:45:58.752Z,100818.97
2023-10-22T11:48:27.499Z,100810.69
2023-10-22T11:51:02.587Z,100808.81
2023-10-22T11:53:44.223Z,100803.69
2023-10-22T11:56:11.397Z,100794.88
2023-10-22T11:58:45.670Z,100797.78
2023-10-22T12:01:13.463Z,100785.59
2023-10-22T12:03:40.627Z,100779.47
2023-10-22T12:06:08.044Z,100783.88
2023-10-22T12:08:35.016Z,100785.66
2023-10-22T12:11:02.035Z,100775.25
2023-10-22T12:13:29.059Z,100773.56
2023-10-22T12:15:56.137Z,100773.75
2023-10-22T12:18:25.197Z,100776.97
2023-10-22T12:20:52.546Z,100779.97
2023-10-22T12:23:21.225Z,100775.09
2023-10-22T12:25:49.995Z,100767.28
2023-10-22T12:28:17.013Z,100774.13
2023-10-22T12:30:44.190Z,100770.47
2023-10-22T12:33:11.418Z,100768.78
2023-10-22T12:35:41.511Z,100773.19
2023-10-22T12:38:08.732Z,100765.50
2023-10-22T12:40:38.869Z,100757.84
2023-10-22T12:43:06.549Z,100755.50
2023-10-22T12:45:34.355Z,100748.84
2023-10-22T12:48:01.549Z,100747.06
2023-10-22T12:50:28.625Z,100746.94
2023-10-22T12:52:55.624Z,100736.34
2023-10-22T12:55:25.395Z,100739.72
2023-10-22T12:57:52.873Z,100740.47
2023-10-22T13:00:20.066Z,100739.69
2023-10-22T13:02:47.526Z,100741.31
2023-10-22T13:05:14.656Z,100741.41
2023-10-22T13:07:41.751Z,100740.53
2023-10-22T13:10:09.104Z,100734.56
2023-10-22T13:12:37.356Z,100738.22
2023-10-22T13:15:06.081Z,100745.50
2023-10-22T13:17:36.955Z,100739.78
2023-10-22T13:20:10.165Z,100742.88
2023-10-22T13:22:37.625Z,100738.13
2023-10-22T13:25:05.090Z,100731.66
2023-10-22T13:27:34.289Z,100730.63
2023-10-22T13:30:01.734Z,100731.66
2023-10-22T13:32:28.949Z,100722.88
2023-10-22T13:34:55.995Z,100715.56
2023-10-22T13:37:23.067Z,100715.38
2023-10-22T13:39:50.238Z,100715.38
2023-10-22T13:42:17.379Z,100707.91
2023-10-22T13:44:47.961Z,100704.50
2023-10-22T13:47:16.869Z,100702.47
2023-10-22T13:49:45.118Z,100695.66
2023-10-22T13:52:12.271Z,100699.88
2023-10-22T13:54:39.766Z,100698.81
2023-10-22T13:57:07.581Z,100690.41
2023-10-22T13:59:35.943Z,100695.66
2023-10-22T14:02:02.991Z,100693.31
2023-10-22T14:04:30.119Z,100697.88
2023-10-22T14:07:00.168Z,100697.03
2023-10-22T14:09:27.856Z,100695.34
2023-10-22T14:11:55.400Z,100700.78
2023-10-22T14:14:22.465Z,100699.47
2023-10-22T14:16:49.831Z,100702.72
2023-10-22T14:19:16.848Z,100699.16
2023-10-22T14:21:44.183Z,100700.69
2023-10-22T14:24:11.382Z,100713.69
2023-10-22T14:26:38.498Z,100702.47
2023-10-22T14:29:05.603Z,100698.78
2023-10-22T14:31:32.781Z,100694.41
2023-10-22T14:34:00.382Z,100692.72
2023-10-22T14:36:27.541Z,100690.19
2023-10-22T14:38:57.018Z,100691.88
2023-10-22T14:41:25.926Z,100689.84
2023-10-22T14:43:52.971Z,100690.66
2023-10-22T14:46:20.488Z,100676.75
2023-10-22T14:48:47.584Z,100677.94
2023-10-22T14:51:14.828Z,100673.06
2023-10-22T14:53:42.026Z,100677.31
2023-10-22T14:56:09.338Z,100683.28
2023-10-22T14:58:36.551Z,100681.97
2023-10-22T15:01:12.669Z,100681.66
2023-10-22T15:03:40.045Z,100686.94
2023-10-22T15:06:07.487Z,100680.28
2023-10-22T15:08:35.531Z,100685.34
2023-10-22T15:11:04.811Z,100683.66
2023-10-22T15:13:31.966Z,100684.34
2023-10-22T15:15:59.022Z,100680.78
2023-10-22T15:18:26.342Z,100687.91
2023-10-22T15:20:53.819Z,100689.38
2023-10-22T15:23:20.981Z,100680.03
2023-10-22T15:25:50.417Z,100674.13
2023-10-22T15:28:18.045Z,100671.03
2023-10-22T15:30:46.340Z,100670.34
2023-10-22T15:33:14.303Z,100658.84
2023-10-22T15:35:44.523Z,100651.34
2023-10-22T15:38:14.584Z,100645.28
2023-10-22T15:40:41.675Z,100625.91
2023-10-22T15:43:09.905Z,100616.75
2023-10-22T15:45:46.345Z,100627.91
2023-10-22T15:48:13.806Z,100636.88
2023-10-22T15:50:45.656Z,100648.59
2023-10-22T15:53:13.172Z,100650.63
2023-10-22T15:55:40.376Z,100646.59
2023-10-22T15:58:07.444Z,100642.91
2023-10-22T16:00:36.716Z,100640.28
2023-10-22T16:03:05.318Z,100640.81
2023-10-22T16:05:32.548Z,100626.78
2023-10-22T16:07:59.567Z,100636.31
2023-10-22T16:10:27.250Z,100634.16
2023-10-22T16:12:54.328Z,100631.78
2023-10-22T16:15:22.253Z,100640.31
2023-10-22T16:17:51.242Z,100656.56
2023-10-22T16:20:18.480Z,100654.72
2023-10-22T16:22:46.039Z,100637.75
2023-10-22T16:25:14.234Z,100639.16
2023-10-22T16:27:41.612Z,100639.25
2023-10-22T16:30:09.776Z,100648.09
2023-10-22T16:32:36.858Z,100645.06
2023-10-22T16:35:03.979Z,100647.78
2023-10-22T16:37:31.007Z,100646.09
2023-10-22T16:39:58.551Z,100650.50
2023-10-22T16:42:29.088Z,100655.22
2023-10-22T16:44:56.410Z,100662.34
2023-10-22T16:47:23.615Z,100660.66
2023-10-22T16:49:50.874Z,100662.34
2023-10-22T16:52:18.000Z,100658.78
2023-10-22T16:54:45.143Z,100661.50
2023-10-22T16:57:14.118Z,100655.97
2023-10-22T16:59:42.468Z,100651.25
2023-10-22T17:02:10.369Z,100646.00
2023-10-22T17:04:37.417Z,100643.69
2023-10-22T17:07:04.531Z,100646.84
2023-10-22T17:09:32.506Z,100640.13
2023-10-22T17:11:59.625Z,100634.53
2023-10-22T17:14:37.663Z,100630.78
2023-10-22T17:17:09.045Z,100634.19
2023-10-22T17:19:36.483Z,100628.94
2023-10-22T17:22:04.285Z,100621.66
2023-10-22T17:24:33.131Z,100625.06
2023-10-22T17:27:00.717Z,100631.16
2023-10-22T17:29:27.762Z,100635.91
2023-10-22T17:31:54.829Z,100640.84
2023-10-22T17:34:21.884Z,100645.91
2023-10-22T17:36:49.655Z,100628.69
2023-10-22T17:39:17.218Z,100640.72
2023-10-22T17:41:44.412Z,100643.25
2023-10-22T17:44:11.955Z,100649.03
2023-10-22T17:46:39.125Z,100640.22
2023-10-22T17:49:06.233Z,100637.16
2023-10-22T17:51:34.742Z,100639.16
2023-10-22T17:54:01.893Z,100637.47
2023-10-22T17:56:30.080Z,100644.94
2023-10-22T17:58:57.079Z,100660.19
2023-10-22T18:01:24.155Z,100645.41
2023-10-22T18:03:51.449Z,100637.13
2023-10-22T18:06:18.608Z,100639.31
2023-10-22T18:08:46.559Z,100652.84
2023-10-22T18:11:23.725Z,100654.72
2023-10-22T18:13:50.798Z,100655.19
2023-10-22T18:16:21.315Z,100657.72
2023-10-22T18:18:50.827Z,100647.06
2023-10-22T18:21:19.754Z,100639.41
2023-10-22T18:23:47.049Z,100641.13
2023-10-22T18:26:14.273Z,100640.13
2023-10-22T18:28:41.403Z,100637.41
2023-10-22T18:31:09.555Z,100642.97
2023-10-22T18:33:37.954Z,100641.63
2023-10-22T18:36:06.337Z,100644.16
2023-10-22T18:38:36.425Z,100642.13
2023-10-22T18:41:13.605Z,100652.59
2023-10-22T18:43:47.075Z,100658.69
2023-10-22T18:46:15.345Z,100657.63
2023-10-22T18:48:47.359Z,100657.28
2023-10-22T18:51:20.062Z,100646.78
2023-10-22T18:53:47.980Z,100645.84
2023-10-22T18:56:16.609Z,100643.97
2023-10-22T18:58:45.132Z,100633.47
2023-10-22T19:01:30.507Z,100631.63
2023-10-22T19:04:00.669Z,100621.50
2023-10-22T19:06:30.742Z,100612.31
2023-10-22T19:09:00.642Z,100632.00
2023-10-22T19:11:30.221Z,100632.84
2023-10-22T19:14:01.348Z,100638.09
2023-10-22T19:16:31.417Z,100644.16
2023-10-22T19:19:00.049Z,100656.69
2023-10-22T19:21:28.241Z,100645.84
2023-10-22T19:23:58.190Z,100647.53
2023-10-22T19:26:27.376Z,100647.53
2023-10-22T19:28:55.400Z,100653.97
2023-10-22T19:31:23.211Z,100640.06
2023-10-22T19:33:51.048Z,100642.59
2023-10-22T19:36:20.253Z,100640.06
2023-10-22T19:38:50.777Z,100642.13
2023-10-22T19:41:25.218Z,100633.31
2023-10-22T19:44:07.639Z,100638.72
2023-10-22T19:46:35.696Z,100640.78
2023-10-22T19:49:05.405Z,100646.56
2023-10-22T19:51:33.623Z,100651.63
2023-10-22T19:54:01.279Z,100645.53
2023-10-22T19:56:28.919Z,100639.94
2023-10-22T19:58:57.790Z,100637.88
2023-10-22T20:01:27.812Z,100643.81
2023-10-22T20:03:55.880Z,100637.03
2023-10-22T20:06:24.693Z,100636.69
2023-10-22T20:09:03.779Z,100638.19
2023-10-22T20:11:31.334Z,100616.34
2023-10-22T20:13:59.098Z,100604.19
2023-10-22T20:16:29.331Z,100598.94
2023-10-22T20:25:50.639Z,100574.94
2023-10-22T20:28:20.945Z,100576.78
2023-10-22T20:35:12.761Z,100596.84
2023-10-22T20:37:41.370Z,100600.59
2023-10-22T20:40:21.531Z,100599.91
2023-10-22T20:52:27.400Z,100577.41
2023-10-22T20:54:54.948Z,100583.28
2023-10-22T20:57:22.447Z,100584.66
2023-10-22T20:59:50.521Z,100577.16
2023-10-22T21:02:17.567Z,100558.03
2023-10-22T21:04:44.801Z,100558.88
2023-10-22T21:07:15.571Z,100580.34
2023-10-22T21:09:44.129Z,100584.66
2023-10-22T21:20:07.207Z,100560.31
2023-10-22T21:22:34.352Z,100542.19
2023-10-22T21:25:01.418Z,100528.00
2023-10-22T21:27:28.493Z,100528.81
2023-10-22T21:29:55.693Z,100515.28
2023-10-22T21:32:28.859Z,100524.44
2023-10-22T21:34:56.240Z,100530.88
2023-10-22T21:37:24.579Z,100538.84
2023-10-22T21:39:51.651Z,100543.41
2023-10-22T21:42:18.687Z,100538.28
2023-10-22T21:44:48.987Z,100535.03
2023-10-22T21:47:29.490Z,100542.63
2023-10-22T21:49:59.916Z,100548.38
2023-10-22T21:52:27.054Z,100545.13
2023-10-22T21:54:54.617Z,100544.28
2023-10-22T21:57:24.288Z,100530.47
2023-10-22T21:59:51.654Z,100524.19
2023-10-22T22:02:21.935Z,100526.72
2023-10-22T22:04:49.159Z,100519.63
2023-10-22T22:07:16.195Z,100509.44
2023-10-22T22:09:43.381Z,100502.69
2023-10-22T22:12:10.501Z,100492.03
2023-10-22T22:14:37.760Z,100477.00
2023-10-22T22:17:05.100Z,100489.34
2023-10-22T22:19:32.630Z,100503.72
2023-10-22T22:21:59.660Z,100488.16
2023-10-22T22:24:26.678Z,100483.38
2023-10-22T22:26:53.819Z,100484.41
2023-10-22T22:29:21.089Z,100469.53
2023-10-22T22:31:48.151Z,100471.94
2023-10-22T22:34:15.203Z,100464.84
2023-10-22T22:36:42.305Z,100476.72
2023-10-22T22:39:09.370Z,100471.28
2023-10-22T22:41:36.382Z,100467.38
2023-10-22T22:44:03.578Z,100473.16
2023-10-22T22:46:30.594Z,100456.06
2023-10-22T22:48:58.818Z,100456.75
2023-10-22T22:51:26.421Z,100445.53
2023-10-22T22:53:53.557Z,100435.72
2023-10-22T22:56:20.673Z,100443.19
2023-10-22T22:58:47.783Z,100443.53
2023-10-22T23:01:22.328Z,100447.16
2023-10-22T23:03:49.564Z,100438.03
2023-10-22T23:06:16.641Z,100425.03
2023-10-22T23:08:43.685Z,100419.91
2023-10-22T23:11:13.264Z,100417.22
2023-10-22T23:13:40.593Z,100404.31
2023-10-22T23:16:07.666Z,100380.59
2023-10-22T23:18:34.915Z,100388.44
2023-10-22T23:21:01.964Z,100376.59
2023-10-22T23:23:29.013Z,100370.13
2023-10-22T23:25:56.106Z,100363.41
2023-10-22T23:28:23.198Z,100368.09
2023-10-22T23:30:51.996Z,100380.59
2023-10-22T23:33:22.296Z,100400.13
2023-10-22T23:35:49.609Z,100407.19
2023-10-22T23:38:16.667Z,100402.28
2023-10-22T23:40:43.807Z,100410.75
2023-10-22T23:43:10.774Z,100409.72
2023-10-22T23:45:37.865Z,100410.09
2023-10-22T23:48:05.760Z,100407.41
2023-10-22T23:50:32.852Z,100399.63
2023-10-22T23:53:00.007Z,100392.16
2023-10-22T23:55:27.061Z,100389.47
2023-10-22T23:57:54.089Z,100388.44
